Time;durP1;ratioP1;P1;durP2;ratioP2;P2;SDS_P1;SDS_P2;PMS_P1;PMS_P2;Temp;Humidity;BMP_temperature;BMP_pressure;BME280_temperature;BME280_humidity;BME280_pressure;Samples;Min_cycle;Max_cycle;Signal;HPM_P1;HPM_P2
2022/05/26 00:00:59;;;;;;;5.17;3.27;;;;;;;15.58;61.23;100360.25;5116101;28;20497;-63
2022/05/26 00:03:27;;;;;;;6.30;2.90;;;;;;;15.72;60.56;100358.72;5122741;28;20828;-63
2022/05/26 00:05:54;;;;;;;4.40;2.70;;;;;;;15.62;61.13;100357.06;5115213;28;20476;-63
2022/05/26 00:08:21;;;;;;;7.10;3.07;;;;;;;15.57;61.09;100350.47;5115177;28;20451;-63
2022/05/26 00:10:47;;;;;;;2.90;2.70;;;;;;;15.62;60.99;100357.06;5102190;28;20467;-63
2022/05/26 00:13:14;;;;;;;3.00;2.80;;;;;;;15.58;61.14;100352.19;5115755;28;20459;-63
2022/05/26 00:15:41;;;;;;;3.13;2.50;;;;;;;15.38;61.68;100339.06;5122378;28;20806;-63
2022/05/26 00:18:07;;;;;;;4.63;3.63;;;;;;;15.57;60.86;100337.88;5117497;28;20454;-63
2022/05/26 00:20:36;;;;;;;3.47;2.73;;;;;;;15.61;60.81;100344.59;5107871;28;20989;-63
2022/05/26 00:23:02;;;;;;;5.47;3.43;;;;;;;15.56;61.00;100343.44;5121777;28;20506;-63
2022/05/26 00:25:30;;;;;;;3.93;3.23;;;;;;;15.50;61.28;100353.06;5121933;28;20484;-63
2022/05/26 00:27:56;;;;;;;7.07;2.60;;;;;;;15.66;61.20;100333.31;5122424;28;21142;-63
2022/05/26 00:30:23;;;;;;;3.30;2.50;;;;;;;15.61;61.10;100338.38;5120168;28;20532;-63
2022/05/26 00:32:50;;;;;;;4.60;2.90;;;;;;;15.54;61.91;100334.69;5121971;28;21013;-63
2022/05/26 00:35:17;;;;;;;3.33;2.27;;;;;;;15.49;62.42;100332.50;5122154;28;20523;-63
2022/05/26 00:37:45;;;;;;;3.90;2.63;;;;;;;15.38;62.86;100338.22;5121825;28;20460;-62
2022/05/26 00:40:13;;;;;;;3.23;2.43;;;;;;;15.44;62.51;100332.16;5120911;28;20437;-63
2022/05/26 00:42:40;;;;;;;5.00;3.17;;;;;;;15.43;62.65;100331.31;5122349;28;20573;-62
2022/05/26 00:45:09;;;;;;;4.23;2.80;;;;;;;15.44;62.83;100333.00;5121021;28;20446;-62
2022/05/26 00:47:40;;;;;;;4.50;2.90;;;;;;;15.36;63.54;100338.41;5105075;28;20458;-63
2022/05/26 00:50:12;;;;;;;5.37;2.90;;;;;;;15.27;64.32;100342.09;5119923;28;20495;-62
2022/05/26 00:52:45;;;;;;;4.50;3.03;;;;;;;15.34;64.04;100331.50;5122304;28;20446;-63
2022/05/26 00:55:15;;;;;;;3.40;2.73;;;;;;;15.38;64.06;100338.22;5121423;28;20515;-62
2022/05/26 00:57:44;;;;;;;3.60;2.67;;;;;;;15.38;64.25;100336.38;5120858;28;20502;-62
2022/05/26 01:00:13;;;;;;;3.20;2.70;;;;;;;15.16;65.13;100335.22;5118212;28;20462;-62
2022/05/26 01:02:45;;;;;;;7.07;2.90;;;;;;;15.21;65.24;100326.63;5119930;28;20495;-62
2022/05/26 01:05:15;;;;;;;4.03;2.77;;;;;;;15.26;65.33;100329.66;5121384;28;20481;-62
2022/05/26 01:07:42;;;;;;;3.03;2.40;;;;;;;15.33;65.04;100327.97;5120341;28;20452;-62
2022/05/26 01:10:12;;;;;;;5.63;3.70;;;;;;;15.16;65.89;100313.66;5120274;28;20442;-62
2022/05/26 01:12:40;;;;;;;8.73;4.67;;;;;;;15.23;65.50;100319.22;5121953;28;20511;-62
2022/05/26 01:15:09;;;;;;;3.23;2.83;;;;;;;15.30;65.58;100319.38;5120659;28;20434;-62
2022/05/26 01:17:41;;;;;;;3.47;3.17;;;;;;;15.22;65.52;100318.38;5119806;28;20454;-62
2022/05/26 01:20:23;;;;;;;7.30;4.27;;;;;;;15.18;65.30;100306.25;5113829;28;20958;-62
2022/05/26 01:23:30;;;;;;;5.70;3.97;;;;;;;15.31;64.98;100308.44;5121705;28;20441;-62
2022/05/26 01:26:21;;;;;;;6.40;4.63;;;;;;;15.19;64.57;100307.94;5098291;28;20560;-62
2022/05/26 01:29:21;;;;;;;4.53;4.13;;;;;;;15.14;65.37;100310.31;5112279;28;20443;-61
2022/05/26 01:31:53;;;;;;;9.23;4.20;;;;;;;15.27;64.58;100320.56;5063426;28;20490;-61
2022/05/26 01:34:25;;;;;;;7.00;4.00;;;;;;;15.43;63.92;100325.94;5120704;28;20925;-62
2022/05/26 01:36:59;;;;;;;5.20;4.00;;;;;;;15.30;64.57;100322.91;5121100;28;20509;-60
2022/05/26 01:39:32;;;;;;;5.10;4.50;;;;;;;15.43;63.91;100325.06;5120458;28;20489;-61
2022/05/26 01:42:09;;;;;;;6.27;4.00;;;;;;;15.43;63.92;100317.00;5120691;28;20517;-61
2022/05/26 01:44:44;;;;;;;5.60;4.33;;;;;;;15.48;64.00;100322.72;5120140;28;20466;-61
2022/05/26 01:47:21;;;;;;;5.27;4.20;;;;;;;15.46;63.96;100322.03;5106204;28;20573;-62
2022/05/26 01:49:52;;;;;;;7.20;4.77;;;;;;;15.41;64.07;100316.34;5106325;28;20993;-61
2022/05/26 01:52:23;;;;;;;5.93;5.13;;;;;;;15.37;64.08;100320.38;5120793;28;20482;-61
2022/05/26 01:54:55;;;;;;;5.70;4.70;;;;;;;15.44;63.79;100314.13;5120363;28;20531;-61
2022/05/26 01:57:24;;;;;;;6.67;4.70;;;;;;;15.49;64.22;100318.19;5120249;28;20508;-61
2022/05/26 01:59:52;;;;;;;4.80;4.33;;;;;;;15.40;63.87;100320.06;5110046;28;20434;-61
2022/05/26 02:02:25;;;;;;;5.90;4.53;;;;;;;15.55;63.41;100322.88;5119563;28;20477;-62
2022/05/26 02:04:56;;;;;;;6.23;4.93;;;;;;;15.44;64.19;100326.78;5120453;28;20559;-62
2022/05/26 02:07:25;;;;;;;6.30;5.30;;;;;;;15.44;63.67;100316.81;5118786;28;20553;-62
2022/05/26 02:09:53;;;;;;;5.73;5.13;;;;;;;15.42;63.98;100331.50;5120102;28;20434;-62
2022/05/26 02:12:22;;;;;;;8.10;5.00;;;;;;;15.52;63.65;100331.28;5119968;28;20488;-62
2022/05/26 02:14:53;;;;;;;5.90;5.17;;;;;;;15.53;63.85;100330.28;5120488;28;20460;-61
2022/05/26 02:17:25;;;;;;;8.63;5.30;;;;;;;15.60;63.51;100328.59;5118829;28;20514;-62
2022/05/26 02:19:55;;;;;;;5.67;5.13;;;;;;;15.43;64.03;100341.25;5104569;28;20443;-61
2022/05/26 02:22:26;;;;;;;6.70;5.10;;;;;;;15.37;64.39;100339.25;5122981;28;20507;-62
2022/05/26 02:24:56;;;;;;;5.63;4.40;;;;;;;15.43;64.18;100341.25;5124643;28;20753;-62
2022/05/26 02:27:26;;;;;;;8.83;4.80;;;;;;;15.42;65.10;100339.56;5123893;28;20481;-62
2022/05/26 02:29:52;;;;;;;4.80;4.40;;;;;;;15.53;65.19;100344.59;5124030;28;20450;-62
2022/05/26 02:32:22;;;;;;;8.83;5.70;;;;;;;15.44;65.68;100342.94;5123110;28;20485;-62
2022/05/26 02:34:52;;;;;;;7.33;5.93;;;;;;;15.21;66.49;100349.00;5124844;28;20445;-62
2022/05/26 02:37:20;;;;;;;8.13;6.40;;;;;;;15.36;66.05;100351.88;5124207;28;20470;-61
2022/05/26 02:39:47;;;;;;;9.50;6.67;;;;;;;15.23;67.06;100354.22;5123950;28;20437;-61
2022/05/26 02:42:14;;;;;;;6.93;6.23;;;;;;;15.31;67.28;100353.38;5123644;28;20513;-61
2022/05/26 02:44:42;;;;;;;7.67;6.17;;;;;;;15.35;67.02;100366.34;5109065;28;20466;-61
2022/05/26 02:47:28;;;;;;;9.13;5.63;;;;;;;15.37;67.42;100363.50;5122930;28;20548;-63
2022/05/26 02:50:06;;;;;;;6.30;5.17;;;;;;;15.30;67.63;100363.31;5121429;28;20436;-62
2022/05/26 02:52:38;;;;;;;6.23;5.63;;;;;;;15.49;67.41;100366.69;5122419;28;20493;-61
2022/05/26 02:55:16;;;;;;;5.37;4.70;;;;;;;15.39;68.21;100369.53;5124291;28;20449;-62
2022/05/26 02:57:52;;;;;;;6.30;5.00;;;;;;;15.36;69.08;100367.19;5122523;28;20844;-62
2022/05/26 03:00:21;;;;;;;7.50;5.50;;;;;;;15.05;70.62;100374.09;5123692;28;20478;-61
2022/05/26 03:02:55;;;;;;;7.03;5.00;;;;;;;15.27;70.05;100373.59;5122858;28;20503;-62
2022/05/26 03:05:24;;;;;;;5.83;5.27;;;;;;;15.07;72.14;100384.69;5115765;28;20496;-61
2022/05/26 03:07:53;;;;;;;7.10;5.37;;;;;;;14.96;73.20;100374.22;5122103;28;20454;-61
2022/05/26 03:10:24;;;;;;;6.83;5.90;;;;;;;14.97;73.83;100384.84;5123155;28;20511;-61
2022/05/26 03:12:51;;;;;;;11.67;5.97;;;;;;;15.01;73.50;100386.19;5124243;28;20461;-61
2022/05/26 03:15:17;;;;;;;7.53;6.30;;;;;;;14.95;73.44;100376.09;5122674;28;20519;-62
2022/05/26 03:17:44;;;;;;;6.30;5.50;;;;;;;14.91;73.91;100377.41;5123143;28;20454;-62
2022/05/26 03:20:13;;;;;;;8.30;5.60;;;;;;;15.13;73.12;100391.25;5120770;28;20744;-61
2022/05/26 03:22:39;;;;;;;7.23;5.83;;;;;;;14.99;73.54;100374.75;5108319;28;20472;-62
2022/05/26 03:25:07;;;;;;;7.50;6.80;;;;;;;15.01;73.45;100390.72;5123456;28;20531;-62
2022/05/26 03:27:33;;;;;;;6.37;5.73;;;;;;;15.02;73.27;100387.88;5123116;28;20483;-62
2022/05/26 03:30:00;;;;;;;6.73;6.13;;;;;;;15.02;73.52;100384.34;5122767;28;20518;-62
2022/05/26 03:32:27;;;;;;;7.33;6.63;;;;;;;14.94;74.52;100379.78;5122786;28;20486;-61
2022/05/26 03:43:09;;;;;;;10.33;9.10;;;;;;;14.79;76.61;100395.75;5123576;28;20489;-63
2022/05/26 03:45:36;;;;;;;11.30;10.20;;;;;;;14.79;77.04;100392.19;5122573;27;20481;-62
2022/05/26 03:48:04;;;;;;;10.50;9.60;;;;;;;14.87;76.78;100390.38;5122541;28;20454;-61
2022/05/26 03:50:32;;;;;;;11.50;10.40;;;;;;;14.87;77.27;100389.53;5121916;28;21147;-62
2022/05/26 03:53:00;;;;;;;13.00;11.70;;;;;;;14.79;77.39;100392.19;5123440;28;20449;-62
2022/05/26 03:55:27;;;;;;;12.23;10.20;;;;;;;14.89;77.00;100395.59;5121895;28;20477;-62
2022/05/26 03:57:54;;;;;;;15.57;12.17;;;;;;;14.88;77.17;100402.00;5120141;28;20512;-62
2022/05/26 04:00:24;;;;;;;15.20;13.80;;;;;;;14.87;77.17;100408.38;5119715;28;20434;-62
2022/05/26 04:02:51;;;;;;;14.60;13.20;;;;;;;14.75;77.64;100407.00;5122137;28;20458;-62
2022/05/26 04:05:19;;;;;;;15.70;13.70;;;;;;;14.74;77.20;100402.59;5121632;28;20494;-62
2022/05/26 04:07:46;;;;;;;14.90;13.33;;;;;;;14.88;76.65;100404.69;5123020;28;20450;-61
2022/05/26 04:10:15;;;;;;;13.83;12.50;;;;;;;14.89;76.60;100409.03;5116787;28;20924;-62
2022/05/26 04:12:42;;;;;;;14.33;12.70;;;;;;;14.98;76.19;100412.59;5123460;28;20480;-63
2022/05/26 04:15:10;;;;;;;15.27;13.70;;;;;;;14.72;77.48;100412.69;5122255;28;20429;-62
2022/05/26 04:17:37;;;;;;;14.20;12.83;;;;;;;14.80;77.19;100415.41;5121704;28;20442;-62
2022/05/26 04:20:05;;;;;;;13.70;12.30;;;;;;;14.67;77.22;100422.13;5121932;28;20457;-62
2022/05/26 04:22:32;;;;;;;13.00;11.73;;;;;;;14.62;77.59;100419.06;5121888;28;20470;-62
2022/05/26 04:25:00;;;;;;;13.30;11.90;;;;;;;14.57;77.04;100429.44;5122840;28;20503;-62
2022/05/26 04:27:30;;;;;;;14.10;12.70;;;;;;;14.77;76.74;100434.59;5120781;28;20485;-62
2022/05/26 04:29:57;;;;;;;12.37;11.13;;;;;;;15.05;76.52;100436.03;5109140;28;20470;-63
2022/05/26 04:32:24;;;;;;;15.17;13.67;;;;;;;14.97;76.05;100436.00;5119069;28;20861;-63
2022/05/26 04:34:51;;;;;;;14.90;13.40;;;;;;;14.91;76.75;100439.31;5121797;28;20446;-62
2022/05/26 04:37:18;;;;;;;14.10;12.67;;;;;;;14.88;77.08;100445.06;5121310;28;20500;-62
2022/05/26 04:39:45;;;;;;;15.80;14.20;;;;;;;14.87;76.91;100428.03;5114635;28;20430;-62
2022/05/26 04:42:12;;;;;;;15.23;13.20;;;;;;;14.90;77.28;100436.81;5120875;28;20482;-62
2022/05/26 04:44:42;;;;;;;16.50;13.33;;;;;;;14.77;77.59;100439.97;5121402;28;20466;-62
2022/05/26 04:47:09;;;;;;;21.33;13.30;;;;;;;15.03;76.92;100437.16;5120858;28;20498;-62
2022/05/26 04:49:37;;;;;;;15.20;13.60;;;;;;;14.91;77.13;100444.72;5110441;28;20450;-62
2022/05/26 04:52:05;;;;;;;14.97;13.00;;;;;;;14.83;77.70;100445.53;5117160;28;20511;-62
2022/05/26 04:54:32;;;;;;;14.13;12.77;;;;;;;14.76;77.91;100449.91;5121634;28;20445;-63
2022/05/26 04:56:59;;;;;;;13.53;12.13;;;;;;;14.90;77.94;100450.28;5120626;27;20478;-63
2022/05/26 04:59:26;;;;;;;14.50;13.10;;;;;;;14.91;77.69;100452.78;5121851;28;20467;-62
2022/05/26 05:01:54;;;;;;;14.57;12.20;;;;;;;14.89;77.49;100462.88;5121489;28;20478;-62
2022/05/26 05:04:23;;;;;;;13.00;11.67;;;;;;;14.90;77.88;100466.44;5111423;28;20478;-62
2022/05/26 05:06:49;;;;;;;17.00;12.40;;;;;;;15.17;77.27;100466.19;5121293;28;20467;-62
2022/05/26 05:09:16;;;;;;;12.87;11.63;;;;;;;15.17;77.06;100468.88;5120891;28;20442;-63
2022/05/26 05:11:43;;;;;;;14.77;11.53;;;;;;;15.17;76.77;100468.88;5119669;27;20482;-64
2022/05/26 05:14:10;;;;;;;12.13;11.00;;;;;;;15.15;77.09;100472.72;5122411;28;20434;-63
2022/05/26 05:16:42;;;;;;;11.17;10.03;;;;;;;15.15;77.29;100473.56;5120294;28;20462;-62
2022/05/26 05:19:10;;;;;;;13.37;10.93;;;;;;;15.28;77.03;100469.56;5105191;28;20451;-62
2022/05/26 05:21:40;;;;;;;15.53;10.60;;;;;;;15.55;75.96;100476.47;5121560;28;20474;-62
2022/05/26 05:24:10;;;;;;;13.93;11.63;;;;;;;16.04;74.11;100479.22;5113847;28;20428;-63
2022/05/26 05:26:40;;;;;;;14.37;11.27;;;;;;;16.20;73.05;100475.63;5101058;28;20498;-62
2022/05/26 05:29:10;;;;;;;11.27;10.17;;;;;;;15.86;73.91;100482.06;5104171;28;20458;-64
2022/05/26 05:31:42;;;;;;;14.03;11.50;;;;;;;15.47;75.90;100493.50;5121610;28;20470;-64
2022/05/26 05:34:13;;;;;;;11.43;10.17;;;;;;;15.19;76.93;100496.47;5121589;28;20450;-64
2022/05/26 05:36:40;;;;;;;11.93;9.70;;;;;;;15.47;76.10;100516.88;5121068;28;20486;-63
2022/05/26 05:39:07;;;;;;;11.50;9.70;;;;;;;15.25;76.78;100500.34;5121212;28;20450;-64
2022/05/26 05:41:35;;;;;;;19.50;10.20;;;;;;;15.66;76.10;100502.25;5120966;28;20477;-65
2022/05/26 05:44:03;;;;;;;13.10;10.37;;;;;;;15.89;74.77;100497.91;5121998;28;20426;-65
2022/05/26 05:46:34;;;;;;;16.00;10.53;;;;;;;15.88;74.44;100503.47;5120073;28;20478;-67
2022/05/26 05:49:02;;;;;;;11.33;10.17;;;;;;;15.80;75.28;100509.72;5119277;28;20522;-64
2022/05/26 05:51:31;;;;;;;11.50;10.30;;;;;;;16.22;73.94;100499.75;5120589;27;20502;-65
2022/05/26 05:53:58;;;;;;;12.43;10.63;;;;;;;16.16;73.45;100506.63;5121269;27;20457;-70
2022/05/26 05:56:26;;;;;;;11.53;10.33;;;;;;;16.13;73.76;100509.69;5136247;27;20492;-65
2022/05/26 05:58:53;;;;;;;16.23;10.03;;;;;;;15.98;73.93;100517.63;5125173;27;20462;-64
2022/05/26 06:01:20;;;;;;;14.33;10.37;;;;;;;15.80;73.96;100509.72;5113784;28;20512;-63
2022/05/26 06:03:47;;;;;;;12.00;10.80;;;;;;;15.90;74.20;100504.13;5124273;28;20877;-64
2022/05/26 06:06:15;;;;;;;14.10;10.27;;;;;;;16.32;73.26;100508.50;5122840;28;20487;-64
2022/05/26 06:08:43;;;;;;;13.27;9.93;;;;;;;16.64;72.17;100512.94;5126119;28;20477;-63
2022/05/26 06:11:09;;;;;;;10.93;9.83;;;;;;;16.74;71.10;100501.94;5125519;28;20523;-66
2022/05/26 06:13:36;;;;;;;11.93;9.27;;;;;;;16.68;70.79;100510.72;5126147;28;20426;-65
2022/05/26 06:16:04;;;;;;;11.03;8.97;;;;;;;16.84;70.85;100510.72;5124152;28;20457;-62
2022/05/26 06:18:32;;;;;;;11.70;9.90;;;;;;;16.63;71.70;100515.81;5124944;28;20467;-63
2022/05/26 06:21:03;;;;;;;13.23;10.30;;;;;;;16.49;71.24;100520.94;5124934;28;20474;-63
2022/05/26 06:23:30;;;;;;;15.20;10.50;;;;;;;16.46;71.68;100523.13;5125804;28;20442;-62
2022/05/26 06:25:58;;;;;;;11.07;9.97;;;;;;;16.92;69.85;100529.56;5122286;28;20545;-62
2022/05/26 06:31:10;;;;;;;12.00;9.80;;;;;;;17.19;68.43;100537.41;5123113;28;20497;-62
2022/05/26 06:39:07;;;;;;;13.10;9.20;;;;;;;18.29;64.48;100533.56;5124185;28;20452;-63
2022/05/26 06:44:19;;;;;;;15.33;9.57;;;;;;;18.17;64.30;100534.00;5122456;28;20456;-62
2022/05/26 06:46:46;;;;;;;18.10;10.07;;;;;;;18.43;63.87;100541.69;5122436;28;20473;-63
2022/05/26 06:49:13;;;;;;;10.83;9.00;;;;;;;17.73;65.49;100541.97;5124439;28;20504;-63
2022/05/26 06:51:43;;;;;;;12.93;8.87;;;;;;;17.67;66.31;100546.22;5122827;28;21363;-62
2022/05/26 06:54:10;;;;;;;14.23;10.37;;;;;;;17.77;65.51;100551.41;5124062;28;20438;-63
2022/05/26 06:56:38;;;;;;;12.13;9.87;;;;;;;17.42;66.66;100548.25;5121080;28;21017;-63
2022/05/26 06:59:07;;;;;;;10.47;9.20;;;;;;;17.69;66.24;100558.56;5124751;28;20902;-64
2022/05/26 07:01:34;;;;;;;12.33;9.90;;;;;;;18.69;62.17;100547.69;5118693;28;20474;-63
2022/05/26 07:04:01;;;;;;;10.37;8.17;;;;;;;19.74;58.62;100555.50;5121321;28;20454;-64
2022/05/26 07:06:29;;;;;;;9.53;7.77;;;;;;;20.79;54.90;100555.72;5105303;28;20955;-63
2022/05/26 07:08:56;;;;;;;12.40;8.50;;;;;;;20.32;54.54;100566.25;5116083;28;20446;-63
2022/05/26 07:11:23;;;;;;;13.57;9.10;;;;;;;19.42;58.06;100569.53;5122732;28;20470;-63
2022/05/26 07:13:51;;;;;;;10.50;7.83;;;;;;;21.29;52.83;100555.53;5123480;28;20457;-62
2022/05/26 07:16:18;;;;;;;9.10;7.40;;;;;;;20.82;53.15;100570.81;5121605;28;20488;-67
2022/05/26 07:18:50;;;;;;;10.90;7.63;;;;;;;20.12;55.71;100576.13;5122436;28;20461;-63
2022/05/26 07:21:17;;;;;;;9.63;8.13;;;;;;;19.82;56.69;100575.41;5122621;28;20657;-65
2022/05/26 07:23:44;;;;;;;9.83;7.07;;;;;;;20.77;53.48;100584.16;5122447;28;20453;-63
2022/05/26 07:26:12;;;;;;;10.13;7.40;;;;;;;19.55;56.56;100592.19;5117568;28;20474;-63
2022/05/26 07:28:40;;;;;;;9.57;7.40;;;;;;;19.52;57.78;100597.16;5121450;28;20894;-65
2022/05/26 07:31:08;;;;;;;10.83;7.27;;;;;;;19.11;58.35;100589.56;5122623;28;20798;-63
2022/05/26 07:33:35;;;;;;;12.63;7.63;;;;;;;19.28;57.76;100590.22;5120978;28;20462;-63
2022/05/26 07:36:02;;;;;;;10.90;7.33;;;;;;;19.69;56.82;100597.78;5122755;28;20665;-63
2022/05/26 07:41:19;;;;;;;8.53;5.50;;;;;;;20.16;52.56;100601.84;5118897;28;20840;-62
2022/05/26 07:43:49;;;;;;;9.80;5.70;;;;;;;19.50;53.12;100600.06;5101297;28;20439;-62
2022/05/26 07:46:18;;;;;;;8.90;5.53;;;;;;;19.73;52.65;100601.78;5101116;28;20505;-61
2022/05/26 07:48:44;;;;;;;8.80;5.00;;;;;;;19.72;52.31;100603.66;5097312;28;20454;-65
2022/05/26 07:51:11;;;;;;;11.83;5.70;;;;;;;19.71;53.21;100612.00;5101838;28;20504;-64
2022/05/26 07:53:38;;;;;;;11.77;5.83;;;;;;;21.77;49.19;100604.50;5101516;28;20473;-65
2022/05/26 07:56:05;;;;;;;11.00;6.10;;;;;;;21.47;48.62;100606.69;5099832;28;20470;-63
2022/05/26 07:58:32;;;;;;;9.13;6.30;;;;;;;21.43;48.76;100608.09;5090165;28;20436;-63
2022/05/26 08:00:59;;;;;;;9.63;5.70;;;;;;;21.22;49.91;100599.03;5100167;28;20482;-62
2022/05/26 08:03:27;;;;;;;9.83;6.00;;;;;;;22.12;45.87;100612.50;5100903;28;20455;-62
2022/05/26 08:05:54;;;;;;;13.80;6.53;;;;;;;20.81;48.92;100613.41;5094192;28;20594;-62
2022/05/26 08:08:21;;;;;;;10.93;6.10;;;;;;;19.84;52.48;100608.59;5098037;28;20456;-63
2022/05/26 08:10:48;;;;;;;10.10;5.67;;;;;;;19.71;52.65;100623.69;5081317;28;20472;-62
2022/05/26 08:13:15;;;;;;;13.70;6.30;;;;;;;18.76;55.91;100632.59;5098555;28;20519;-63
2022/05/26 08:15:43;;;;;;;10.80;5.67;;;;;;;19.17;54.96;100622.19;5096643;28;20471;-62
2022/05/26 08:18:09;;;;;;;8.47;6.27;;;;;;;19.74;53.73;100622.50;5096300;28;20460;-62
2022/05/26 08:20:37;;;;;;;10.17;6.17;;;;;;;20.85;51.67;100630.19;5096523;28;20471;-63
2022/05/26 08:23:05;;;;;;;14.83;6.43;;;;;;;22.16;48.05;100635.53;5099270;28;20451;-62
2022/05/26 08:25:32;;;;;;;8.93;6.10;;;;;;;23.42;44.03;100646.59;5100646;28;20467;-64
2022/05/26 08:27:59;;;;;;;8.33;5.80;;;;;;;22.97;44.34;100639.13;5100480;28;20550;-62
2022/05/26 08:30:25;;;;;;;8.20;5.37;;;;;;;24.15;40.43;100642.66;5100752;28;20427;-62
2022/05/26 08:32:55;;;;;;;8.20;4.67;;;;;;;24.40;39.54;100639.94;5098468;28;20468;-64
2022/05/26 08:35:23;;;;;;;4.33;3.63;;;;;;;23.99;39.31;100635.78;5100957;28;20453;-63
2022/05/26 08:37:51;;;;;;;9.33;4.57;;;;;;;23.38;40.96;100642.59;5100587;28;20459;-63
2022/05/26 08:40:29;;;;;;;10.33;4.97;;;;;;;22.49;42.47;100637.47;5096274;28;20451;-63
2022/05/26 08:42:55;;;;;;;8.50;4.60;;;;;;;23.06;40.52;100648.75;5114005;28;20867;-62
2022/05/26 08:45:23;;;;;;;5.93;3.20;;;;;;;23.28;40.61;100641.16;5120224;28;20470;-61
2022/05/26 08:47:51;;;;;;;9.53;4.77;;;;;;;22.38;43.58;100651.75;5120256;28;20450;-63
2022/05/26 08:50:18;;;;;;;6.87;4.57;;;;;;;21.52;44.79;100647.72;5121310;28;20433;-61
2022/05/26 08:52:48;;;;;;;9.00;5.00;;;;;;;20.84;46.75;100651.06;5121364;28;20533;-63
2022/05/26 08:55:17;;;;;;;8.13;4.17;;;;;;;20.54;47.21;100657.72;5120841;28;20449;-62
2022/05/26 08:57:47;;;;;;;10.67;4.97;;;;;;;20.45;48.01;100662.44;5106472;28;20454;-61
2022/05/26 09:00:17;;;;;;;8.07;4.90;;;;;;;20.17;48.18;100668.66;5100347;28;20427;-62
2022/05/26 09:02:44;;;;;;;8.67;5.10;;;;;;;20.18;48.33;100664.91;5114575;28;20462;-62
2022/05/26 09:05:14;;;;;;;5.43;3.67;;;;;;;21.16;46.65;100664.25;5100666;28;20451;-62
2022/05/26 09:13:24;;;;;;;10.40;4.50;;;;;;;19.76;49.00;100685.53;5085858;28;20476;-59
2022/05/26 09:15:51;;;;;;;9.67;4.40;;;;;;;20.26;48.79;100677.53;5119703;28;20559;-60
2022/05/26 09:18:19;;;;;;;7.77;5.10;;;;;;;20.67;47.90;100685.00;5120327;28;20478;-62
2022/05/26 09:20:48;;;;;;;7.13;4.70;;;;;;;20.99;47.56;100686.31;5119935;28;20478;-60
2022/05/26 09:23:23;;;;;;;9.80;5.10;;;;;;;20.86;47.42;100683.50;5119453;28;20883;-60
2022/05/26 09:25:53;;;;;;;6.40;5.30;;;;;;;21.91;45.11;100684.28;5120049;28;20475;-61
2022/05/26 09:28:41;;;;;;;7.07;4.20;;;;;;;23.60;41.26;100676.72;5118942;28;20771;-62
2022/05/26 09:31:21;;;;;;;7.53;4.17;;;;;;;24.25;38.67;100686.69;5119880;28;20469;-60
2022/05/26 09:34:10;;;;;;;6.07;4.20;;;;;;;24.85;37.38;100691.72;5119616;28;20446;-61
2022/05/26 09:36:45;;;;;;;7.37;3.97;;;;;;;25.70;36.55;100677.34;5120571;28;20462;-61
2022/05/26 09:39:12;;;;;;;8.73;4.00;;;;;;;24.73;38.16;100688.88;5119319;28;20446;-63
2022/05/26 09:41:42;;;;;;;5.37;4.17;;;;;;;22.67;42.67;100680.47;5119678;28;20493;-61
2022/05/26 09:44:39;;;;;;;7.70;3.77;;;;;;;22.55;43.89;100688.44;5120150;28;20438;-61
2022/05/26 09:47:20;;;;;;;7.47;3.70;;;;;;;23.80;40.60;100693.03;5101074;28;20489;-62
2022/05/26 09:49:50;;;;;;;6.73;3.63;;;;;;;24.63;38.48;100699.47;5119615;28;20449;-62
2022/05/26 09:52:19;;;;;;;5.63;3.93;;;;;;;22.41;42.12;100699.50;5116489;28;21100;-61
2022/05/26 09:54:47;;;;;;;6.97;4.40;;;;;;;20.79;45.90;100697.03;5119536;28;20453;-62
2022/05/26 09:57:20;;;;;;;8.23;4.50;;;;;;;19.89;48.57;100703.84;5118566;28;20527;-61
2022/05/26 09:59:48;;;;;;;8.23;4.87;;;;;;;19.49;49.24;100703.31;5120046;28;20475;-60
2022/05/26 10:02:19;;;;;;;7.50;4.70;;;;;;;19.62;49.80;100717.06;5114323;28;20978;-62
2022/05/26 10:05:04;;;;;;;9.50;5.07;;;;;;;21.37;46.83;100717.69;5119567;28;20461;-65
2022/05/26 10:07:43;;;;;;;9.70;6.17;;;;;;;21.71;44.69;100718.75;5106425;28;20509;-62
2022/05/26 10:10:16;;;;;;;5.33;3.93;;;;;;;21.66;44.11;100713.91;5119768;28;20525;-63
2022/05/26 10:12:52;;;;;;;4.63;3.97;;;;;;;21.74;45.74;100721.09;5119414;28;21073;-64
2022/05/26 10:15:31;;;;;;;4.87;4.03;;;;;;;22.77;42.47;100729.09;5118878;28;20469;-61
2022/05/26 10:18:11;;;;;;;9.30;4.63;;;;;;;22.19;43.91;100733.16;5119794;28;20456;-62
2022/05/26 10:20:44;;;;;;;6.40;4.13;;;;;;;21.31;44.73;100727.50;5118752;28;20491;-61
2022/05/26 10:23:38;;;;;;;9.47;4.10;;;;;;;20.11;47.64;100740.84;5119396;28;20453;-62
2022/05/26 10:26:10;;;;;;;7.77;4.17;;;;;;;19.44;50.05;100743.69;5119555;28;20522;-62
2022/05/26 10:29:03;;;;;;;12.50;4.30;;;;;;;19.24;50.50;100746.97;5120034;28;20526;-60
2022/05/26 10:31:41;;;;;;;9.93;4.30;;;;;;;19.40;50.48;100723.41;5119563;28;20481;-62
2022/05/26 10:34:18;;;;;;;8.40;4.67;;;;;;;19.47;50.96;100729.78;5119787;28;20454;-61
2022/05/26 10:36:56;;;;;;;6.03;3.83;;;;;;;19.95;49.96;100727.50;5118752;28;20477;-62
2022/05/26 10:39:32;;;;;;;7.60;4.13;;;;;;;20.27;48.55;100733.50;5113452;28;20456;-62
2022/05/26 10:42:02;;;;;;;7.13;3.80;;;;;;;20.30;48.59;100739.38;5120301;28;20505;-60
2022/05/26 10:44:34;;;;;;;10.57;4.00;;;;;;;20.28;48.78;100736.03;5123130;28;20443;-63
2022/05/26 10:47:02;;;;;;;4.90;3.30;;;;;;;20.49;48.30;100747.94;5122552;28;20577;-62
2022/05/26 10:49:34;;;;;;;5.43;3.73;;;;;;;21.47;46.00;100744.59;5122686;28;20462;-60
2022/05/26 10:52:06;;;;;;;6.67;3.67;;;;;;;22.42;44.08;100736.63;5123911;28;20473;-62
2022/05/26 10:54:37;;;;;;;5.90;3.23;;;;;;;22.45;43.65;100728.03;5108778;28;21019;-62
2022/05/26 10:57:07;;;;;;;8.00;3.50;;;;;;;23.10;41.88;100731.81;5112961;28;20470;-62
2022/05/26 10:59:38;;;;;;;7.77;3.87;;;;;;;23.61;41.24;100730.25;5123408;28;20471;-62
2022/05/26 11:02:12;;;;;;;5.53;3.57;;;;;;;22.82;43.00;100728.47;5121158;28;20505;-62
2022/05/26 11:04:44;;;;;;;6.03;3.73;;;;;;;22.68;42.61;100720.28;5122596;28;20483;-62
2022/05/26 11:07:16;;;;;;;6.53;4.07;;;;;;;22.21;43.99;100726.69;5122052;28;20502;-62
2022/05/26 11:09:48;;;;;;;7.77;3.90;;;;;;;21.22;46.41;100731.44;5123171;28;20457;-66
2022/05/26 11:12:18;;;;;;;9.30;4.47;;;;;;;20.13;48.91;100725.19;5123209;28;20470;-61
2022/05/26 11:17:40;;;;;;;9.20;5.13;;;;;;;19.24;51.76;100746.97;5122695;28;20468;-62
2022/05/26 11:20:12;;;;;;;9.07;6.17;;;;;;;18.96;52.33;100742.16;5122272;28;20889;-61
2022/05/26 11:22:41;;;;;;;8.43;4.07;;;;;;;19.16;52.34;100739.75;5122047;28;20450;-61
2022/05/26 11:25:09;;;;;;;7.50;5.10;;;;;;;19.21;51.07;100744.63;5120213;28;20454;-62
2022/05/26 11:27:37;;;;;;;8.57;4.33;;;;;;;19.44;51.22;100735.56;5121793;28;20488;-61
2022/05/26 11:36:07;;;;;;;6.70;2.73;;;;;;;20.45;48.32;100730.31;5122335;28;20472;-61
2022/05/26 11:38:31;;;;;;;9.30;2.90;;;;;;;20.33;48.87;100727.31;5122739;28;20538;-61
2022/05/26 11:41:05;;;;;;;8.37;3.30;;;;;;;19.46;50.16;100738.94;5122623;28;20478;-60
2022/05/26 11:43:34;;;;;;;8.30;3.50;;;;;;;19.17;50.18;100741.44;5121700;28;20493;-62
2022/05/26 11:46:02;;;;;;;5.90;3.27;;;;;;;19.36;49.89;100741.94;5121432;28;20908;-63
2022/05/26 11:48:44;;;;;;;9.47;3.30;;;;;;;20.10;48.97;100741.03;5122353;28;20480;-64
2022/05/26 11:51:31;;;;;;;8.67;2.97;;;;;;;20.36;48.92;100742.38;5121958;28;20674;-61
2022/05/26 11:53:59;;;;;;;5.83;2.87;;;;;;;21.75;45.95;100745.38;5116098;28;20503;-63
2022/05/26 11:56:42;;;;;;;5.40;2.73;;;;;;;22.44;43.62;100734.50;5116090;28;20471;-61
2022/05/26 11:59:50;;;;;;;4.10;2.80;;;;;;;22.35;43.88;100728.41;5103113;28;20454;-63
2022/05/26 12:02:39;;;;;;;7.83;3.30;;;;;;;21.18;45.70;100719.25;5109277;28;20486;-61
2022/05/26 12:05:46;;;;;;;5.13;3.27;;;;;;;21.21;46.96;100710.72;5116687;28;20521;-68
2022/05/26 12:08:28;;;;;;;3.50;3.20;;;;;;;20.41;47.27;100719.00;5115388;28;20466;-60
2022/05/26 12:10:56;;;;;;;4.07;2.40;;;;;;;21.22;46.14;100717.84;5113444;28;20466;-66